Time;durP1;ratioP1;P1;durP2;ratioP2;P2;SDS_P1;SDS_P2;PMS_P1;PMS_P2;Temp;Humidity;BMP_temperature;BMP_pressure;BME280_temperature;BME280_humidity;BME280_pressure;Samples;Min_cycle;Max_cycle;Signal;HPM_P1;HPM_P2
2021/08/06 00:01:16;;;;;;;6.90;4.28;;;;;;;17.61;81.03;100087.47;4958436;28;20566;-76
2021/08/06 00:03:41;;;;;;;6.25;3.35;;;;;;;17.60;81.26;100089.31;4981581;28;20030;-75
2021/08/06 00:06:07;;;;;;;6.63;3.78;;;;;;;17.62;81.27;100089.09;4975787;28;20503;-75
2021/08/06 00:08:33;;;;;;;4.55;2.88;;;;;;;17.62;81.34;100083.84;4983865;28;20025;-75
2021/08/06 00:11:00;;;;;;;3.35;2.35;;;;;;;17.62;81.24;100081.22;4975862;28;20048;-75
2021/08/06 00:13:25;;;;;;;4.30;3.05;;;;;;;17.65;81.03;100083.41;5008116;28;20187;-75
2021/08/06 00:15:51;;;;;;;4.85;3.40;;;;;;;17.68;80.55;100075.09;4991043;28;20041;-75
2021/08/06 00:18:17;;;;;;;6.03;2.72;;;;;;;17.65;81.14;100084.22;4996894;28;20180;-75
2021/08/06 00:20:43;;;;;;;6.88;2.78;;;;;;;17.64;81.27;100085.22;5016908;28;20025;-75
2021/08/06 00:23:08;;;;;;;6.80;3.03;;;;;;;17.66;81.02;100079.78;4987925;28;20038;-75
2021/08/06 00:25:34;;;;;;;5.22;2.83;;;;;;;17.68;80.85;100078.53;4992039;28;20030;-75
2021/08/06 00:27:59;;;;;;;8.43;2.80;;;;;;;17.71;80.61;100077.31;4973814;28;20033;-75
2021/08/06 00:30:26;;;;;;;6.25;2.88;;;;;;;17.73;80.25;100074.47;4986859;28;20034;-74
2021/08/06 00:32:53;;;;;;;3.83;2.53;;;;;;;17.77;79.89;100067.75;4977258;28;20034;-75
2021/08/06 00:35:27;;;;;;;6.82;2.40;;;;;;;17.76;79.82;100060.91;4985859;28;20038;-76
2021/08/06 00:37:52;;;;;;;4.57;3.05;;;;;;;17.75;79.74;100060.09;5005881;28;20404;-75
2021/08/06 00:40:21;;;;;;;5.70;2.47;;;;;;;17.70;80.13;100058.13;4988819;28;20403;-76
2021/08/06 00:42:48;;;;;;;4.25;2.53;;;;;;;17.69;79.87;100056.53;5001224;28;20022;-76
2021/08/06 00:45:21;;;;;;;5.22;2.60;;;;;;;17.69;79.68;100051.28;4987139;28;20030;-77
2021/08/06 00:47:48;;;;;;;8.57;3.13;;;;;;;17.77;78.71;100065.91;4985998;28;22388;-76
2021/08/06 00:50:14;;;;;;;5.95;2.55;;;;;;;17.72;79.18;100057.91;4979020;28;20520;-76
2021/08/06 00:52:42;;;;;;;6.22;3.40;;;;;;;17.73;79.17;100054.28;5006937;28;20038;-75
2021/08/06 00:55:08;;;;;;;4.53;2.75;;;;;;;17.73;78.57;100054.28;4994649;28;20037;-75
2021/08/06 00:57:36;;;;;;;3.33;2.30;;;;;;;17.69;78.88;100056.53;4989463;28;20033;-76
2021/08/06 01:00:12;;;;;;;7.43;2.92;;;;;;;17.70;78.84;100057.34;4995358;28;20029;-75
2021/08/06 01:03:01;;;;;;;4.80;2.60;;;;;;;17.69;78.54;100058.38;4972113;28;20040;-75
2021/08/06 01:05:40;;;;;;;7.85;3.20;;;;;;;17.69;78.71;100047.88;4980588;28;20045;-76
2021/08/06 01:08:11;;;;;;;5.20;2.80;;;;;;;17.68;78.67;100048.91;5008254;28;20033;-75
2021/08/06 01:10:53;;;;;;;7.07;2.92;;;;;;;17.69;78.78;100046.06;4988021;28;20039;-75
2021/08/06 01:13:43;;;;;;;5.90;2.97;;;;;;;17.69;78.10;100047.88;5016847;28;20073;-75
2021/08/06 01:16:11;;;;;;;3.38;2.70;;;;;;;17.68;78.30;100038.41;5004696;28;20065;-75
2021/08/06 01:18:46;;;;;;;6.15;2.78;;;;;;;17.69;78.19;100050.50;5001069;28;20033;-75
2021/08/06 01:21:17;;;;;;;4.93;2.93;;;;;;;17.68;77.98;100052.31;4993189;28;20029;-76
2021/08/06 01:23:43;;;;;;;8.73;2.83;;;;;;;17.66;77.43;100049.09;4998650;28;20475;-75
2021/08/06 01:26:19;;;;;;;6.75;2.72;;;;;;;17.69;76.92;100050.50;4985197;28;20053;-75
2021/08/06 01:28:53;;;;;;;7.82;3.33;;;;;;;17.62;77.04;100039.28;4975998;28;20418;-76
2021/08/06 01:31:26;;;;;;;10.57;3.38;;;;;;;17.59;77.39;100048.38;4989237;28;20041;-75
2021/08/06 01:33:57;;;;;;;7.53;3.00;;;;;;;17.58;77.39;100041.56;4994171;28;20444;-75
2021/08/06 01:36:27;;;;;;;5.63;2.53;;;;;;;17.71;76.35;100036.16;5001531;28;20392;-76
2021/08/06 01:38:54;;;;;;;5.85;2.30;;;;;;;17.68;76.34;100036.56;5010547;28;20029;-75
2021/08/06 01:41:51;;;;;;;5.28;3.00;;;;;;;17.60;76.87;100031.66;4994978;28;20092;-75
2021/08/06 01:44:43;;;;;;;4.28;2.50;;;;;;;17.57;76.69;100032.06;4985421;28;20033;-75
2021/08/06 01:47:39;;;;;;;9.05;2.78;;;;;;;17.50;77.47;100026.94;4988596;28;20070;-75
2021/08/06 01:50:14;;;;;;;5.55;2.60;;;;;;;17.52;77.98;100032.75;4983326;28;20633;-77
2021/08/06 01:52:44;;;;;;;5.43;2.55;;;;;;;17.53;77.83;100028.31;4991645;28;20033;-75
2021/08/06 01:55:15;;;;;;;3.53;2.58;;;;;;;17.60;77.43;100031.66;4996706;28;20065;-76
2021/08/06 01:57:49;;;;;;;6.47;2.80;;;;;;;17.60;76.88;100028.25;4996485;28;20289;-75
2021/08/06 02:00:16;;;;;;;4.22;2.55;;;;;;;17.52;77.15;100038.00;4989208;28;20042;-74
2021/08/06 02:02:44;;;;;;;6.80;2.60;;;;;;;17.53;77.47;100033.53;5013772;28;20110;-75
2021/08/06 02:05:16;;;;;;;4.38;2.25;;;;;;;17.50;77.77;100034.00;4995914;28;20026;-75
2021/08/06 02:07:45;;;;;;;9.93;2.40;;;;;;;17.45;77.67;100026.00;4989466;28;20544;-76
2021/08/06 02:10:14;;;;;;;9.02;2.88;;;;;;;17.48;77.47;100026.34;4985657;28;20179;-75
2021/08/06 02:12:40;;;;;;;4.32;2.58;;;;;;;17.51;77.16;100025.09;4983909;28;20038;-75
2021/08/06 02:15:09;;;;;;;4.55;2.17;;;;;;;17.47;77.39;100031.81;4997312;28;20050;-75
2021/08/06 02:17:39;;;;;;;5.30;2.55;;;;;;;17.46;77.50;100035.44;4992621;28;20373;-75
2021/08/06 02:20:24;;;;;;;4.15;2.42;;;;;;;17.46;77.69;100033.63;4992546;28;20088;-75
2021/08/06 02:22:53;;;;;;;2.65;2.00;;;;;;;17.49;77.59;100032.38;4984772;28;20044;-76
2021/08/06 02:25:23;;;;;;;3.47;2.45;;;;;;;17.50;77.80;100034.00;4988630;28;20030;-75
2021/08/06 02:27:52;;;;;;;5.38;2.58;;;;;;;17.52;77.81;100034.59;4983069;28;20040;-76
2021/08/06 02:30:22;;;;;;;3.72;2.10;;;;;;;17.56;78.20;100040.19;4986044;28;20545;-77
2021/08/06 02:32:53;;;;;;;6.70;2.30;;;;;;;17.49;79.01;100029.78;4992041;28;20029;-76
2021/08/06 02:35:19;;;;;;;5.63;2.03;;;;;;;17.47;79.10;100023.94;4976015;28;20127;-75
2021/08/06 02:37:46;;;;;;;5.68;2.30;;;;;;;17.44;79.43;100019.13;4997281;28;20068;-74
2021/08/06 02:40:12;;;;;;;7.03;2.28;;;;;;;17.46;78.28;100017.91;4999113;28;20042;-77
2021/08/06 02:42:37;;;;;;;2.80;2.15;;;;;;;17.37;78.94;100013.19;4987664;28;20109;-76
2021/08/06 02:45:04;;;;;;;5.57;2.10;;;;;;;17.33;79.44;100012.84;4982043;28;20025;-75
2021/08/06 02:47:30;;;;;;;5.03;2.40;;;;;;;17.24;80.06;100004.47;4985011;28;20065;-76
2021/08/06 02:49:56;;;;;;;4.10;2.05;;;;;;;17.22;79.74;100005.72;5008041;28;20053;-76
2021/08/06 02:52:21;;;;;;;4.65;2.38;;;;;;;17.31;79.81;100005.19;4997500;28;20029;-76
2021/08/06 02:54:47;;;;;;;8.68;2.50;;;;;;;17.21;79.87;99998.84;4973932;28;20587;-75
2021/08/06 02:57:13;;;;;;;3.97;2.05;;;;;;;17.12;80.38;99998.34;4986879;28;20089;-75
2021/08/06 02:59:40;;;;;;;10.98;2.45;;;;;;;17.11;80.92;99999.38;4992754;28;20056;-79
2021/08/06 03:02:06;;;;;;;4.82;2.40;;;;;;;17.08;80.54;99999.78;4998886;28;20506;-75
2021/08/06 03:04:32;;;;;;;3.17;2.17;;;;;;;17.13;80.61;100000.75;4993712;28;20036;-78
2021/08/06 03:07:00;;;;;;;6.30;2.40;;;;;;;17.04;80.95;99994.19;4998080;28;20117;-75
2021/08/06 03:09:27;;;;;;;7.50;2.42;;;;;;;16.99;81.54;99986.22;4978687;28;20076;-75
2021/08/06 03:11:55;;;;;;;5.38;2.55;;;;;;;17.06;80.97;99986.13;4997818;28;20597;-77
2021/08/06 03:14:21;;;;;;;6.00;2.80;;;;;;;16.90;81.72;99984.88;4974310;28;20026;-75
2021/08/06 03:16:47;;;;;;;10.35;2.58;;;;;;;17.00;81.45;99984.38;4995706;28;20549;-77
2021/08/06 03:19:13;;;;;;;10.13;2.80;;;;;;;17.04;81.18;99975.84;4985364;28;20466;-77
2021/08/06 03:21:39;;;;;;;6.85;2.70;;;;;;;16.89;81.87;99975.41;5001859;28;20396;-76
2021/08/06 03:24:05;;;;;;;6.93;3.03;;;;;;;16.93;81.75;99971.34;4981930;28;20037;-75
2021/08/06 03:26:31;;;;;;;6.75;2.78;;;;;;;16.93;81.95;99972.16;4994477;28;20099;-76
2021/08/06 03:28:57;;;;;;;8.15;2.85;;;;;;;16.96;81.75;99970.91;4982857;28;20423;-75
2021/08/06 03:31:24;;;;;;;5.70;3.15;;;;;;;16.93;81.80;99972.16;4982470;28;20244;-75
2021/08/06 03:33:50;;;;;;;4.35;2.78;;;;;;;16.85;82.22;99966.41;4979462;28;20409;-75
2021/08/06 03:36:16;;;;;;;5.13;2.58;;;;;;;16.82;82.68;99970.25;4989401;28;20034;-75
2021/08/06 03:38:43;;;;;;;10.85;3.78;;;;;;;16.82;82.36;99970.25;4982619;28;20547;-75
2021/08/06 03:41:10;;;;;;;5.75;3.05;;;;;;;16.83;82.55;99974.47;5006569;28;20033;-76
2021/08/06 03:43:35;;;;;;;5.07;2.72;;;;;;;16.81;82.69;99970.44;4994218;28;20034;-76
2021/08/06 03:46:01;;;;;;;7.00;3.13;;;;;;;16.82;82.80;99969.41;4989733;28;20121;-75
2021/08/06 03:48:27;;;;;;;5.32;3.00;;;;;;;16.83;82.78;99971.84;4993883;28;20037;-76
2021/08/06 03:50:54;;;;;;;7.55;3.00;;;;;;;16.87;82.54;99970.41;4983100;28;20089;-76
2021/08/06 03:53:21;;;;;;;4.05;2.72;;;;;;;16.83;82.80;99965.81;4988480;28;20120;-76
2021/08/06 03:55:48;;;;;;;4.50;2.40;;;;;;;16.83;83.03;99971.84;4998774;28;20022;-76
2021/08/06 03:58:15;;;;;;;3.90;2.60;;;;;;;16.95;82.67;99973.75;4989384;28;20446;-76
2021/08/06 04:00:41;;;;;;;11.82;3.28;;;;;;;17.02;82.38;99984.97;4972897;28;20030;-76
2021/08/06 04:03:09;;;;;;;3.97;2.72;;;;;;;16.93;82.93;99981.81;4988529;28;20040;-75
2021/08/06 04:05:36;;;;;;;7.00;2.53;;;;;;;16.85;83.52;99982.13;4988565;28;20026;-76
2021/08/06 04:08:11;;;;;;;3.50;2.40;;;;;;;16.85;83.38;99979.50;4988882;28;20092;-75
2021/08/06 04:10:41;;;;;;;4.57;2.30;;;;;;;16.88;83.19;99981.69;4992771;28;20037;-76
2021/08/06 04:13:08;;;;;;;4.45;2.78;;;;;;;16.85;83.21;99982.13;4995475;28;20088;-77
2021/08/06 04:15:33;;;;;;;7.55;2.90;;;;;;;16.77;83.85;99975.31;4976978;28;20030;-76
2021/08/06 04:17:59;;;;;;;5.75;2.72;;;;;;;16.68;83.93;99977.41;5000638;28;20033;-76
2021/08/06 04:20:25;;;;;;;4.40;2.50;;;;;;;16.77;83.83;99985.00;4990402;28;20026;-75
2021/08/06 04:22:51;;;;;;;5.18;2.75;;;;;;;16.73;83.97;99979.38;4990985;28;20062;-76
2021/08/06 04:25:17;;;;;;;3.75;3.00;;;;;;;16.67;83.99;99980.22;4993546;28;20199;-75
2021/08/06 04:27:43;;;;;;;5.55;2.67;;;;;;;16.73;84.06;99977.56;4988076;28;20030;-75
2021/08/06 04:30:11;;;;;;;9.95;2.80;;;;;;;16.74;83.97;99988.81;4987698;28;20034;-75
2021/08/06 04:32:36;;;;;;;6.55;3.03;;;;;;;16.72;84.13;99980.38;5008171;28;20033;-76
2021/08/06 04:35:02;;;;;;;6.10;2.88;;;;;;;16.69;84.27;99978.22;4983837;28;20319;-76
2021/08/06 04:37:28;;;;;;;4.68;3.13;;;;;;;16.75;84.40;99979.97;4986572;28;20503;-75
2021/08/06 04:39:53;;;;;;;4.30;2.83;;;;;;;16.64;84.69;99988.53;4995435;28;20034;-76
2021/08/06 04:42:19;;;;;;;9.65;3.17;;;;;;;16.69;84.69;99980.84;5000066;28;20041;-75
2021/08/06 04:44:45;;;;;;;4.60;2.55;;;;;;;16.64;84.83;99986.69;4993514;28;20445;-76
2021/08/06 04:47:10;;;;;;;10.00;2.83;;;;;;;16.67;84.57;99975.81;4992368;28;20084;-75
2021/08/06 04:49:36;;;;;;;6.22;3.30;;;;;;;16.71;84.54;99984.03;4991652;28;20395;-75
2021/08/06 04:52:03;;;;;;;5.47;3.30;;;;;;;16.71;84.57;99978.81;4993211;28;20479;-75
2021/08/06 04:54:29;;;;;;;5.95;3.33;;;;;;;16.70;84.93;99983.22;4984287;28;20025;-75
2021/08/06 04:56:55;;;;;;;7.40;3.80;;;;;;;16.65;85.35;99982.25;5000300;28;20345;-75
2021/08/06 04:59:20;;;;;;;8.40;3.63;;;;;;;16.74;84.96;99980.97;4992643;28;20025;-75
2021/08/06 05:01:47;;;;;;;7.57;4.25;;;;;;;16.64;85.21;99978.84;4971204;28;20033;-75
2021/08/06 05:04:13;;;;;;;5.85;4.13;;;;;;;16.72;85.17;99973.31;4991329;28;20034;-75
2021/08/06 05:06:39;;;;;;;7.85;3.75;;;;;;;16.68;85.14;99984.47;4984982;28;20030;-76
2021/08/06 05:09:05;;;;;;;9.13;3.92;;;;;;;16.74;85.16;99979.19;4983782;28;20033;-75
2021/08/06 05:11:31;;;;;;;7.88;3.70;;;;;;;16.76;84.91;99975.53;4971138;28;20038;-75
2021/08/06 05:13:57;;;;;;;8.20;4.25;;;;;;;16.75;85.17;99977.34;4990614;28;20029;-75
2021/08/06 05:16:24;;;;;;;7.88;4.25;;;;;;;16.73;85.09;99967.09;4984196;28;20030;-75
2021/08/06 05:18:49;;;;;;;10.23;3.28;;;;;;;16.78;85.11;99973.50;4984975;28;20376;-75
2021/08/06 05:21:15;;;;;;;5.32;3.17;;;;;;;16.76;84.75;99973.69;4975782;28;20095;-75
2021/08/06 05:23:43;;;;;;;8.48;3.53;;;;;;;16.81;84.74;99965.22;5003246;28;20054;-75
2021/08/06 05:26:09;;;;;;;6.32;3.05;;;;;;;16.85;83.97;99969.81;5005945;28;20033;-76
2021/08/06 05:28:34;;;;;;;6.82;3.25;;;;;;;16.82;84.66;99970.25;5005768;28;20033;-76
2021/08/06 05:31:00;;;;;;;7.63;3.08;;;;;;;16.81;84.53;99963.38;4999990;28;20030;-75
2021/08/06 05:33:26;;;;;;;6.68;2.70;;;;;;;16.80;84.34;99968.84;4971041;28;20023;-75
2021/08/06 05:35:53;;;;;;;7.65;2.65;;;;;;;16.78;84.54;99973.50;4978890;28;20040;-76
2021/08/06 05:38:19;;;;;;;5.82;2.70;;;;;;;16.83;84.51;99968.44;4985138;28;20411;-76
2021/08/06 05:40:45;;;;;;;7.38;3.53;;;;;;;16.89;84.17;99972.81;4992413;28;20034;-75
2021/08/06 05:43:14;;;;;;;3.40;3.00;;;;;;;16.88;84.51;99979.88;5012152;28;20021;-75
2021/08/06 05:45:40;;;;;;;5.25;2.47;;;;;;;16.85;84.71;99980.28;4976404;28;20030;-76
2021/08/06 05:48:07;;;;;;;5.03;2.33;;;;;;;16.97;84.70;99980.38;4984736;28;20233;-77
2021/08/06 05:50:40;;;;;;;5.97;2.53;;;;;;;16.96;84.33;99977.97;4990170;28;20100;-76
2021/08/06 05:53:09;;;;;;;6.05;2.92;;;;;;;17.03;84.34;99984.75;4989748;28;20454;-76
2021/08/06 05:55:37;;;;;;;5.70;2.65;;;;;;;17.10;83.83;99982.03;4981893;28;20050;-76
2021/08/06 05:58:06;;;;;;;8.13;2.50;;;;;;;17.10;84.33;99982.88;4979925;28;20492;-75
2021/08/06 06:00:33;;;;;;;7.00;2.60;;;;;;;17.06;84.17;99981.66;4975773;28;20038;-76
2021/08/06 06:03:12;;;;;;;6.95;2.22;;;;;;;17.03;84.47;99981.34;5004664;28;20156;-76
2021/08/06 06:05:51;;;;;;;7.45;2.50;;;;;;;17.06;84.43;99979.06;4995934;28;20080;-75
2021/08/06 06:08:16;;;;;;;4.30;2.20;;;;;;;17.11;84.44;99981.81;4971171;28;20412;-75
2021/08/06 06:10:42;;;;;;;3.50;2.40;;;;;;;17.16;83.98;99989.03;4974068;28;20026;-75
2021/08/06 06:13:08;;;;;;;5.10;2.40;;;;;;;17.08;84.63;99986.69;4993448;28;20399;-76
2021/08/06 06:15:35;;;;;;;3.10;2.38;;;;;;;17.04;84.85;99981.09;4989156;28;20026;-76
2021/08/06 06:18:01;;;;;;;5.07;1.95;;;;;;;17.05;85.02;99987.94;4984396;28;20043;-75
2021/08/06 06:20:27;;;;;;;8.85;2.22;;;;;;;17.11;84.92;99996.75;4986962;28;20026;-76
2021/08/06 06:22:54;;;;;;;3.58;2.40;;;;;;;17.12;85.17;99995.72;4996308;28;20056;-76
2021/08/06 06:25:20;;;;;;;4.05;2.10;;;;;;;17.16;84.95;99990.84;4980385;28;20709;-75
2021/08/06 06:27:47;;;;;;;3.72;1.75;;;;;;;17.13;85.24;99994.72;4997048;28;20465;-75
2021/08/06 06:30:13;;;;;;;8.48;2.22;;;;;;;17.19;84.51;99998.28;4997973;28;20460;-75
2021/08/06 06:32:39;;;;;;;5.82;2.35;;;;;;;17.15;84.72;100003.16;4995106;28;20049;-75
2021/08/06 06:35:05;;;;;;;3.30;1.88;;;;;;;17.18;84.71;100009.75;4981163;28;20037;-76
2021/08/06 06:37:30;;;;;;;6.38;1.65;;;;;;;17.34;84.64;100008.38;5007053;28;20033;-75
2021/08/06 06:39:56;;;;;;;6.10;2.00;;;;;;;17.47;84.34;100000.38;4984792;28;20026;-76
2021/08/06 06:42:22;;;;;;;5.95;2.83;;;;;;;17.52;84.02;100000.50;4998806;28;20371;-76
2021/08/06 06:44:52;;;;;;;4.88;1.95;;;;;;;17.78;84.02;100006.41;4992953;28;20399;-77
2021/08/06 06:47:18;;;;;;;3.53;2.00;;;;;;;17.82;83.09;100004.94;4988609;28;20030;-77
2021/08/06 06:49:44;;;;;;;4.18;1.48;;;;;;;17.89;82.58;100010.94;4992404;28;20032;-76
2021/08/06 06:52:09;;;;;;;9.35;2.80;;;;;;;18.01;80.80;100003.91;5008391;28;20029;-77
2021/08/06 06:54:35;;;;;;;2.40;1.55;;;;;;;18.14;81.03;100004.72;4989253;28;20338;-76
2021/08/06 06:57:00;;;;;;;8.93;3.40;;;;;;;18.14;81.45;100000.28;4992161;28;20022;-76
2021/08/06 06:59:26;;;;;;;6.95;1.60;;;;;;;18.01;81.00;100008.38;4973540;28;20022;-76
2021/08/06 07:01:52;;;;;;;6.75;1.58;;;;;;;18.11;81.29;100013.06;5000995;28;20089;-75
2021/08/06 07:04:17;;;;;;;3.53;1.60;;;;;;;18.36;80.95;100005.00;4986489;28;20747;-76
2021/08/06 07:06:43;;;;;;;5.47;1.80;;;;;;;18.49;79.87;100010.03;4990444;28;20478;-74
2021/08/06 07:09:09;;;;;;;2.25;1.40;;;;;;;18.53;80.81;100002.50;5000508;28;20018;-73
2021/08/06 07:11:36;;;;;;;6.50;1.90;;;;;;;18.46;79.83;100010.50;5000082;28;20034;-77
2021/08/06 07:14:02;;;;;;;4.13;1.52;;;;;;;18.35;80.42;100006.81;4992897;28;20048;-75
2021/08/06 07:16:28;;;;;;;6.35;1.40;;;;;;;18.52;79.49;100009.59;4985193;28;20031;-75
2021/08/06 07:18:54;;;;;;;1.80;1.15;;;;;;;18.55;80.32;100014.34;4989934;28;20029;-76
2021/08/06 07:21:23;;;;;;;3.72;1.42;;;;;;;18.49;80.49;100017.91;5005079;28;20034;-74
2021/08/06 07:23:48;;;;;;;3.38;1.30;;;;;;;18.44;80.61;100021.22;4969128;28;20029;-77
2021/08/06 07:26:14;;;;;;;2.10;1.50;;;;;;;18.32;81.33;100030.09;4965198;28;20440;-77
2021/08/06 07:28:42;;;;;;;9.82;1.40;;;;;;;18.22;82.18;100030.66;4997043;28;20487;-79
2021/08/06 07:31:08;;;;;;;3.75;1.30;;;;;;;18.07;81.84;100037.09;4973713;28;20026;-77
2021/08/06 07:33:34;;;;;;;5.90;1.50;;;;;;;17.86;83.52;100029.75;4973632;28;20144;-79
2021/08/06 07:35:59;;;;;;;6.88;1.30;;;;;;;17.74;84.22;100040.13;4984552;28;20035;-79
2021/08/06 07:38:26;;;;;;;3.67;1.85;;;;;;;17.99;83.76;100037.44;4980539;28;20053;-78
2021/08/06 07:40:54;;;;;;;6.07;1.30;;;;;;;18.21;83.90;100044.78;4984082;28;20038;-77
2021/08/06 07:43:21;;;;;;;4.03;1.40;;;;;;;18.18;84.11;100053.13;4974325;28;20029;-76
2021/08/06 07:45:47;;;;;;;4.43;1.45;;;;;;;18.42;83.61;100059.19;5005164;28;20584;-75
2021/08/06 07:48:14;;;;;;;5.22;1.30;;;;;;;18.49;83.10;100059.91;4990416;28;20421;-78
2021/08/06 07:50:41;;;;;;;6.18;1.83;;;;;;;18.62;82.36;100064.16;4979548;28;20112;-77
2021/08/06 07:53:08;;;;;;;8.20;1.33;;;;;;;18.78;80.80;100066.09;4995226;28;20025;-77
2021/08/06 07:55:34;;;;;;;2.80;1.30;;;;;;;18.76;81.06;100067.34;4994892;28;20092;-77
2021/08/06 07:58:00;;;;;;;2.70;1.30;;;;;;;18.86;79.48;100068.41;4986025;28;20439;-75
2021/08/06 08:00:26;;;;;;;4.65;1.23;;;;;;;18.84;79.38;100067.84;5006304;28;20030;-76
2021/08/06 08:02:53;;;;;;;2.38;1.15;;;;;;;18.68;80.83;100076.34;4970365;28;20044;-75
2021/08/06 08:05:23;;;;;;;2.63;1.27;;;;;;;18.59;81.10;100072.47;4992322;28;20258;-77
2021/08/06 08:07:53;;;;;;;2.25;1.73;;;;;;;18.50;81.06;100079.88;4982294;28;20566;-76
2021/08/06 08:10:20;;;;;;;3.60;1.25;;;;;;;18.18;80.88;100076.72;4974347;28;20052;-75
2021/08/06 08:12:47;;;;;;;2.28;1.30;;;;;;;18.13;80.93;100087.88;4993124;28;20362;-76
2021/08/06 08:15:15;;;;;;;3.65;1.55;;;;;;;18.08;81.39;100092.97;4989919;28;20037;-75
2021/08/06 08:17:40;;;;;;;4.45;1.48;;;;;;;18.05;81.61;100094.25;4987640;28;20083;-76
2021/08/06 08:20:07;;;;;;;6.10;1.52;;;;;;;17.96;81.48;100102.63;4998649;28;20022;-76
2021/08/06 08:22:34;;;;;;;4.32;1.92;;;;;;;17.97;81.38;100091.94;4995203;28;20037;-75
2021/08/06 08:24:59;;;;;;;3.65;1.70;;;;;;;17.84;80.98;100094.69;4982369;28;20084;-73
2021/08/06 08:27:25;;;;;;;5.07;2.03;;;;;;;17.75;81.78;100091.56;4975077;28;20038;-74
2021/08/06 08:29:51;;;;;;;3.90;1.65;;;;;;;17.88;82.00;100093.25;4988039;28;20472;-77
2021/08/06 08:32:17;;;;;;;6.05;1.92;;;;;;;17.90;82.53;100099.06;5005498;28;20028;-75
2021/08/06 08:34:43;;;;;;;3.83;2.28;;;;;;;17.86;81.74;100095.31;5017949;28;20109;-76
2021/08/06 08:37:10;;;;;;;3.85;1.80;;;;;;;17.94;81.79;100096.81;4995599;28;20399;-76
2021/08/06 08:39:37;;;;;;;4.25;1.70;;;;;;;17.86;82.08;100093.47;5000485;28;20041;-75
2021/08/06 08:42:03;;;;;;;4.30;1.50;;;;;;;17.92;81.53;100098.88;5007362;28;20029;-74
2021/08/06 08:44:37;;;;;;;5.60;1.45;;;;;;;18.01;81.84;100098.34;4985446;28;20029;-76
2021/08/06 08:47:06;;;;;;;3.60;1.85;;;;;;;18.09;81.41;100094.59;5002184;28;20120;-74
2021/08/06 08:49:36;;;;;;;4.05;1.52;;;;;;;18.15;81.99;100092.91;4981793;28;20026;-75
2021/08/06 08:52:03;;;;;;;4.00;1.52;;;;;;;18.22;80.81;100088.38;4998062;28;20061;-75
2021/08/06 08:54:29;;;;;;;3.20;1.40;;;;;;;18.30;80.68;100088.03;4983533;28;20037;-75
2021/08/06 08:56:55;;;;;;;2.65;1.50;;;;;;;18.29;80.15;100103.00;5013927;28;20025;-76
2021/08/06 08:59:23;;;;;;;2.63;1.42;;;;;;;18.35;77.92;100095.25;4990735;28;20567;-75
2021/08/06 09:01:48;;;;;;;2.58;1.58;;;;;;;18.35;79.07;100093.44;4998877;28;20025;-77
2021/08/06 09:04:25;;;;;;;2.97;1.60;;;;;;;18.34;79.05;100091.81;4996123;28;20351;-76
2021/08/06 09:06:53;;;;;;;3.40;2.15;;;;;;;18.33;80.15;100094.66;5007706;28;20031;-73
2021/08/06 09:09:36;;;;;;;3.60;1.88;;;;;;;18.49;80.10;100100.06;4996584;28;20025;-75
2021/08/06 09:12:27;;;;;;;3.90;2.22;;;;;;;18.58;78.03;100086.63;5004336;28;20458;-75
2021/08/06 09:14:53;;;;;;;2.28;1.65;;;;;;;18.70;78.88;100095.31;4987716;28;20050;-76
2021/08/06 09:17:18;;;;;;;3.65;1.65;;;;;;;18.97;78.45;100087.03;5011399;28;20041;-76
2021/08/06 09:19:54;;;;;;;4.97;2.13;;;;;;;19.12;76.69;100084.75;4985027;28;20056;-75
2021/08/06 09:22:25;;;;;;;3.63;1.70;;;;;;;19.14;77.09;100084.53;4977949;28;20458;-76
2021/08/06 09:25:05;;;;;;;5.25;2.10;;;;;;;19.22;76.94;100082.34;4993560;28;20038;-76
2021/08/06 09:27:34;;;;;;;3.88;2.05;;;;;;;19.32;76.94;100086.22;4995033;28;20026;-77
2021/08/06 09:30:01;;;;;;;3.30;1.63;;;;;;;19.50;77.05;100082.66;4978191;28;20176;-78
2021/08/06 09:32:27;;;;;;;4.63;2.60;;;;;;;19.62;75.56;100076.31;5012248;28;20053;-77
2021/08/06 09:34:53;;;;;;;3.75;1.90;;;;;;;19.76;74.38;100073.44;4986010;28;20038;-75
2021/08/06 09:37:21;;;;;;;4.03;2.10;;;;;;;19.77;74.34;100072.41;4998906;28;20029;-75
2021/08/06 09:39:50;;;;;;;3.90;2.08;;;;;;;20.05;74.11;100079.50;5004719;28;20323;-78
2021/08/06 09:42:15;;;;;;;4.03;2.45;;;;;;;20.37;72.06;100076.38;4999415;28;20041;-75
2021/08/06 09:44:41;;;;;;;3.08;1.55;;;;;;;20.78;71.40;100069.13;4973621;28;20567;-74
2021/08/06 09:47:21;;;;;;;6.50;1.83;;;;;;;20.92;70.78;100069.59;5015152;28;20026;-75
2021/08/06 09:49:51;;;;;;;4.22;1.83;;;;;;;21.43;70.50;100072.09;5007949;28;20408;-76
2021/08/06 09:52:25;;;;;;;4.85;2.00;;;;;;;21.52;68.70;100065.38;4999285;28;20029;-75
2021/08/06 09:54:51;;;;;;;6.30;1.90;;;;;;;21.34;68.46;100082.25;4986700;28;20038;-74
2021/08/06 09:57:17;;;;;;;3.80;1.80;;;;;;;21.02;70.91;100080.28;4992854;28;20105;-76
2021/08/06 09:59:49;;;;;;;5.00;1.75;;;;;;;20.96;69.46;100079.41;4991063;28;20395;-77
2021/08/06 10:02:31;;;;;;;7.35;2.00;;;;;;;20.76;70.09;100077.28;5007186;28;20040;-76
2021/08/06 10:05:12;;;;;;;4.82;2.00;;;;;;;20.58;69.77;100075.66;4986337;28;20099;-76
2021/08/06 10:07:41;;;;;;;5.10;1.73;;;;;;;20.65;69.32;100088.69;5006886;28;20504;-76
2021/08/06 10:10:15;;;;;;;6.88;1.60;;;;;;;20.87;69.53;100075.59;5001655;28;20033;-77
2021/08/06 10:12:41;;;;;;;5.07;1.92;;;;;;;20.93;70.14;100079.09;4993906;28;20116;-75
2021/08/06 10:15:07;;;;;;;3.17;1.48;;;;;;;21.03;70.38;100073.97;4996759;28;20030;-77
2021/08/06 10:17:34;;;;;;;2.92;1.50;;;;;;;21.02;70.30;100077.66;4998955;28;20037;-76
2021/08/06 10:19:59;;;;;;;2.65;1.40;;;;;;;20.77;69.49;100081.50;5011834;28;20065;-74
2021/08/06 10:22:25;;;;;;;4.70;2.13;;;;;;;20.64;69.49;100081.81;4971451;28;20025;-77
2021/08/06 10:24:53;;;;;;;5.18;1.80;;;;;;;20.56;69.80;100079.56;4973930;28;20033;-75
2021/08/06 10:27:25;;;;;;;2.85;1.35;;;;;;;20.66;69.78;100076.31;5010251;28;20029;-75
2021/08/06 10:30:08;;;;;;;2.53;1.37;;;;;;;20.83;70.27;100084.22;4991699;28;20496;-77
2021/08/06 10:32:36;;;;;;;4.63;1.60;;;;;;;21.07;67.95;100080.34;4994649;28;21013;-76
2021/08/06 10:35:17;;;;;;;2.45;1.25;;;;;;;20.93;66.60;100089.66;4988447;28;20214;-75
2021/08/06 10:38:00;;;;;;;3.88;1.58;;;;;;;20.90;67.15;100090.91;4984865;28;20304;-76
2021/08/06 10:40:32;;;;;;;4.72;1.20;;;;;;;20.62;67.27;100086.53;4994273;28;20047;-77
2021/08/06 10:43:17;;;;;;;2.05;1.40;;;;;;;20.39;68.28;100096.16;5003610;28;20475;-75
2021/08/06 10:45:46;;;;;;;4.45;1.10;;;;;;;20.40;68.72;100104.84;4988278;28;20044;-80
2021/08/06 10:48:31;;;;;;;3.88;1.10;;;;;;;20.42;68.41;100098.31;4988344;28;20030;-77
2021/08/06 10:51:12;;;;;;;3.78;1.60;;;;;;;20.28;68.71;100109.38;4994520;28;20037;-76
2021/08/06 10:53:45;;;;;;;5.97;1.08;;;;;;;20.42;67.04;100105.41;4985542;28;20041;-75
2021/08/06 10:56:16;;;;;;;2.70;1.40;;;;;;;20.26;67.49;100100.91;5001279;28;20042;-76
2021/08/06 11:01:30;;;;;;;4.28;1.50;;;;;;;20.26;68.33;100104.34;5011296;28;20045;-78
2021/08/06 11:03:57;;;;;;;3.95;1.50;;;;;;;20.47;68.09;100104.69;4972267;28;20523;-77
2021/08/06 11:06:37;;;;;;;6.15;1.45;;;;;;;20.82;66.93;100093.16;4995144;28;20017;-78
2021/08/06 11:09:11;;;;;;;1.45;1.02;;;;;;;21.03;66.60;100089.78;4990607;28;20029;-77
2021/08/06 11:11:47;;;;;;;4.75;0.90;;;;;;;21.17;64.07;100085.75;4990182;28;20075;-75
2021/08/06 11:14:15;;;;;;;3.85;1.63;;;;;;;21.28;63.43;100083.25;4988006;28;20029;-78
2021/08/06 11:17:18;;;;;;;1.42;0.88;;;;;;;21.47;59.79;100079.28;5007721;28;20030;-74
2021/08/06 11:19:48;;;;;;;6.27;1.23;;;;;;;21.89;60.31;100084.00;4998003;28;20100;-75
2021/08/06 11:22:16;;;;;;;2.65;1.13;;;;;;;22.13;57.80;100071.31;5010273;28;21040;-75
2021/08/06 11:24:47;;;;;;;1.92;1.30;;;;;;;21.85;58.85;100074.16;4987783;28;20033;-75
2021/08/06 11:27:14;;;;;;;2.05;1.10;;;;;;;21.42;59.37;100076.59;4975748;28;20446;-75
2021/08/06 11:29:42;;;;;;;5.50;1.40;;;;;;;21.29;61.43;100085.66;5000636;28;20058;-76
2021/08/06 11:32:10;;;;;;;2.28;1.23;;;;;;;21.09;61.42;100078.25;4981472;28;20459;-75
2021/08/06 11:34:55;;;;;;;3.70;1.10;;;;;;;20.98;61.36;100097.59;4980670;28;20514;-75
2021/08/06 11:37:22;;;;;;;4.45;1.30;;;;;;;20.90;61.49;100087.47;4995689;28;20049;-76